Crew | Aerofun Virtual



 METAR AND TAF INFORMATION
METAR FOR LEZG
ADDS - METARS form results

(0316 UTC 23 September 2019)
Data provider http://aviationweather.gov/metar/data/
 
METAR text: LEZG 230300Z 27005KT 230V300 9999 FEW070 15/11 Q1018
Conditions at: LEZG (ZARAGOZA (MIL/CI, ES) observed 0300 UTC 23 September 2019
Temperature: 15.0°C (59°F)
Dewpoint: 11.0°C (52°F) [RH = 77%]
Pressure (altimeter): 30.06 inches Hg (1018.0 mb)
Winds: from the W (270 degrees) at 6 MPH (5 knots; 2.6 m/s)
Visibility: 6 or more miles (10+ km)
Ceiling: at least 12,000 feet AGL
Clouds: few clouds at 7000 feet AGL
Weather: no significant weather observed at this time

METAR text: LEZG 230230Z 25004KT 9999 FEW070 15/10 Q1018
Conditions at: LEZG (ZARAGOZA (MIL/CI, ES) observed 0230 UTC 23 September 2019
Temperature: 15.0°C (59°F)
Dewpoint: 10.0°C (50°F) [RH = 72%]
Pressure (altimeter): 30.06 inches Hg (1018.0 mb)
Winds: from the WSW (250 degrees) at 5 MPH (4 knots; 2.1 m/s)
Visibility: 6 or more miles (10+ km)
Ceiling: at least 12,000 feet AGL
Clouds: few clouds at 7000 feet AGL
Weather: no significant weather observed at this time

Forecast for: LEZG (ZARAGOZA (MIL/CI, ES)
Text: TAF LEZG 222300Z 2300/2324 28008KT 9999 FEW065 TX29/2314Z TN14/2306Z
Forecast period: 0000 UTC 23 September 2019 to 0000 UTC 24 September 2019
Forecast type: FROM: standard forecast or significant change
Winds: from the W (280 degrees) at 9 MPH (8 knots; 4.1 m/s)
Visibility: 6 or more miles 10+ km)
Ceiling: at least 12,000 feet AGL
Clouds: few clouds at 6500 feet AGL
Weather: no significant weather forecast for this period

 AIRPORT MAP

 RUNWAY INFORMATION
Runway 12L Runway length 9843 ft Runway width 148 ft
Runway elevation 823 ft Runway displaced threshold 0 ft Runway heading 120
Runway 30R Runway length 9843 ft Runway width 148 ft
Runway elevation 834 ft Runway displaced threshold 0 ft Runway heading 300
Runway 12R Runway length 12198 ft Runway width 148 ft
Runway elevation 834 ft Runway displaced threshold 0 ft Runway heading 120
Runway 30L Runway length 12198 ft Runway width 148 ft
Runway elevation 863 ft Runway displaced threshold 0 ft Runway heading 300

 AIRPORT FREQUENCIES
Type APP Name APP Frequency 119.3 MHZ
Type GND Name GND Frequency 118.1 MHZ
Type TWR Name TWR Frequency 118.1 MHZ

 AIRPORT NEAR NAVIGATION AIDS
Type VOR-DME Name Zaragoza Frequency 113000 KHZ
Type NDB Name Zaragoza Frequency 389 KHZ
Type TACAN Name Zaragoza Frequency 133700 KHZ
Type NDB Name Zaragoza Frequency 348 KHZ